sensor_id;sensor_type;location;lat;lon;timestamp;P1;durP1;ratioP1;P2;durP2;ratioP2
72557;SDS011;60583;50.094;8.748;2022-10-16T00:00:42;7.18;;;3.30;;
72557;SDS011;60583;50.094;8.748;2022-10-16T00:03:08;5.15;;;2.85;;
72557;SDS011;60583;50.094;8.748;2022-10-16T00:05:38;5.55;;;3.05;;
72557;SDS011;60583;50.094;8.748;2022-10-16T00:08:05;4.45;;;2.70;;
72557;SDS011;60583;50.094;8.748;2022-10-16T00:10:31;5.05;;;3.10;;
72557;SDS011;60583;50.094;8.748;2022-10-16T00:12:56;5.22;;;3.15;;
72557;SDS011;60583;50.094;8.748;2022-10-16T00:15:21;5.50;;;3.10;;
72557;SDS011;60583;50.094;8.748;2022-10-16T00:17:47;6.03;;;3.40;;
72557;SDS011;60583;50.094;8.748;2022-10-16T00:20:12;5.18;;;2.70;;
72557;SDS011;60583;50.094;8.748;2022-10-16T00:22:37;5.60;;;2.83;;
72557;SDS011;60583;50.094;8.748;2022-10-16T00:25:03;4.65;;;2.95;;
72557;SDS011;60583;50.094;8.748;2022-10-16T00:27:28;5.93;;;3.28;;
72557;SDS011;60583;50.094;8.748;2022-10-16T00:29:54;6.07;;;2.72;;
72557;SDS011;60583;50.094;8.748;2022-10-16T00:32:19;6.18;;;2.92;;
72557;SDS011;60583;50.094;8.748;2022-10-16T00:34:45;5.30;;;2.95;;
72557;SDS011;60583;50.094;8.748;2022-10-16T00:37:11;6.10;;;3.10;;
72557;SDS011;60583;50.094;8.748;2022-10-16T00:39:36;4.95;;;2.70;;
72557;SDS011;60583;50.094;8.748;2022-10-16T00:42:02;6.07;;;3.03;;
72557;SDS011;60583;50.094;8.748;2022-10-16T00:47:32;5.65;;;2.50;;
72557;SDS011;60583;50.094;8.748;2022-10-16T00:50:06;6.68;;;2.65;;
72557;SDS011;60583;50.094;8.748;2022-10-16T00:52:44;6.18;;;2.55;;
72557;SDS011;60583;50.094;8.748;2022-10-16T00:55:12;4.82;;;2.40;;
72557;SDS011;60583;50.094;8.748;2022-10-16T00:57:38;4.63;;;2.40;;
72557;SDS011;60583;50.094;8.748;2022-10-16T01:00:05;4.43;;;2.13;;
72557;SDS011;60583;50.094;8.748;2022-10-16T01:02:33;6.40;;;2.50;;
72557;SDS011;60583;50.094;8.748;2022-10-16T01:04:58;4.15;;;2.15;;
72557;SDS011;60583;50.094;8.748;2022-10-16T01:07:34;6.47;;;2.10;;
72557;SDS011;60583;50.094;8.748;2022-10-16T01:10:24;4.78;;;1.70;;
72557;SDS011;60583;50.094;8.748;2022-10-16T01:15:58;4.97;;;2.00;;
72557;SDS011;60583;50.094;8.748;2022-10-16T01:18:34;4.07;;;1.70;;
72557;SDS011;60583;50.094;8.748;2022-10-16T01:21:08;4.00;;;1.70;;
72557;SDS011;60583;50.094;8.748;2022-10-16T01:29:24;3.50;;;1.60;;
72557;SDS011;60583;50.094;8.748;2022-10-16T01:31:56;4.43;;;1.67;;
72557;SDS011;60583;50.094;8.748;2022-10-16T01:34:32;4.10;;;1.90;;
72557;SDS011;60583;50.094;8.748;2022-10-16T01:37:13;3.75;;;1.83;;
72557;SDS011;60583;50.094;8.748;2022-10-16T01:39:53;3.33;;;1.70;;
72557;SDS011;60583;50.094;8.748;2022-10-16T01:45:09;4.53;;;1.50;;
72557;SDS011;60583;50.094;8.748;2022-10-16T01:47:38;3.90;;;1.90;;
72557;SDS011;60583;50.094;8.748;2022-10-16T01:50:06;3.60;;;1.70;;
72557;SDS011;60583;50.094;8.748;2022-10-16T01:52:34;4.22;;;1.83;;
72557;SDS011;60583;50.094;8.748;2022-10-16T01:55:03;3.40;;;1.58;;
72557;SDS011;60583;50.094;8.748;2022-10-16T01:57:31;3.88;;;1.40;;
72557;SDS011;60583;50.094;8.748;2022-10-16T02:00:04;3.97;;;1.80;;
72557;SDS011;60583;50.094;8.748;2022-10-16T02:02:33;3.60;;;1.50;;
72557;SDS011;60583;50.094;8.748;2022-10-16T02:07:47;4.63;;;1.33;;
72557;SDS011;60583;50.094;8.748;2022-10-16T02:10:13;3.33;;;1.60;;
72557;SDS011;60583;50.094;8.748;2022-10-16T02:12:39;6.88;;;1.70;;
72557;SDS011;60583;50.094;8.748;2022-10-16T02:15:09;4.10;;;1.65;;
72557;SDS011;60583;50.094;8.748;2022-10-16T02:17:34;4.38;;;1.38;;
72557;SDS011;60583;50.094;8.748;2022-10-16T02:20:00;3.13;;;1.60;;
72557;SDS011;60583;50.094;8.748;2022-10-16T02:22:33;2.90;;;1.50;;
72557;SDS011;60583;50.094;8.748;2022-10-16T02:25:12;4.63;;;1.60;;
72557;SDS011;60583;50.094;8.748;2022-10-16T02:30:34;2.80;;;1.30;;
72557;SDS011;60583;50.094;8.748;2022-10-16T02:33:05;4.15;;;1.30;;
72557;SDS011;60583;50.094;8.748;2022-10-16T02:35:34;4.90;;;1.40;;
72557;SDS011;60583;50.094;8.748;2022-10-16T02:38:00;3.10;;;1.40;;
72557;SDS011;60583;50.094;8.748;2022-10-16T02:40:26;3.78;;;1.15;;
72557;SDS011;60583;50.094;8.748;2022-10-16T02:42:53;3.13;;;1.50;;
72557;SDS011;60583;50.094;8.748;2022-10-16T02:45:19;3.10;;;1.25;;
72557;SDS011;60583;50.094;8.748;2022-10-16T02:47:45;2.55;;;1.15;;
72557;SDS011;60583;50.094;8.748;2022-10-16T02:50:10;2.13;;;0.95;;
72557;SDS011;60583;50.094;8.748;2022-10-16T02:52:36;2.40;;;1.02;;
72557;SDS011;60583;50.094;8.748;2022-10-16T02:55:01;2.65;;;0.90;;
72557;SDS011;60583;50.094;8.748;2022-10-16T02:57:27;2.67;;;1.00;;
72557;SDS011;60583;50.094;8.748;2022-10-16T02:59:52;2.83;;;1.23;;
72557;SDS011;60583;50.094;8.748;2022-10-16T03:02:18;3.08;;;1.08;;
72557;SDS011;60583;50.094;8.748;2022-10-16T03:04:43;4.03;;;1.08;;
72557;SDS011;60583;50.094;8.748;2022-10-16T03:07:08;4.50;;;1.42;;
72557;SDS011;60583;50.094;8.748;2022-10-16T03:09:34;2.58;;;1.20;;
72557;SDS011;60583;50.094;8.748;2022-10-16T03:11:59;2.40;;;1.10;;
72557;SDS011;60583;50.094;8.748;2022-10-16T03:14:25;3.78;;;1.50;;
72557;SDS011;60583;50.094;8.748;2022-10-16T03:16:50;3.10;;;1.30;;
72557;SDS011;60583;50.094;8.748;2022-10-16T03:19:16;3.15;;;1.38;;
72557;SDS011;60583;50.094;8.748;2022-10-16T03:21:42;3.50;;;1.13;;
72557;SDS011;60583;50.094;8.748;2022-10-16T03:24:07;4.85;;;1.30;;
72557;SDS011;60583;50.094;8.748;2022-10-16T03:26:33;6.85;;;3.15;;
72557;SDS011;60583;50.094;8.748;2022-10-16T03:28:58;4.80;;;2.05;;
72557;SDS011;60583;50.094;8.748;2022-10-16T03:31:23;4.55;;;1.20;;
72557;SDS011;60583;50.094;8.748;2022-10-16T03:33:49;2.10;;;1.00;;
72557;SDS011;60583;50.094;8.748;2022-10-16T03:36:14;4.45;;;1.10;;
72557;SDS011;60583;50.094;8.748;2022-10-16T03:38:39;5.15;;;1.60;;
72557;SDS011;60583;50.094;8.748;2022-10-16T03:41:05;2.72;;;1.02;;
72557;SDS011;60583;50.094;8.748;2022-10-16T03:43:32;3.45;;;1.30;;
72557;SDS011;60583;50.094;8.748;2022-10-16T03:45:58;4.05;;;1.20;;
72557;SDS011;60583;50.094;8.748;2022-10-16T03:48:23;3.35;;;1.13;;
72557;SDS011;60583;50.094;8.748;2022-10-16T03:50:48;5.43;;;1.40;;
72557;SDS011;60583;50.094;8.748;2022-10-16T03:53:15;2.95;;;1.17;;
72557;SDS011;60583;50.094;8.748;2022-10-16T03:55:41;3.22;;;1.13;;
72557;SDS011;60583;50.094;8.748;2022-10-16T03:58:07;3.97;;;1.50;;
72557;SDS011;60583;50.094;8.748;2022-10-16T04:00:33;2.70;;;1.23;;
72557;SDS011;60583;50.094;8.748;2022-10-16T04:02:59;3.72;;;1.20;;
72557;SDS011;60583;50.094;8.748;2022-10-16T04:05:25;2.75;;;1.25;;
72557;SDS011;60583;50.094;8.748;2022-10-16T04:07:50;4.35;;;1.20;;
72557;SDS011;60583;50.094;8.748;2022-10-16T04:10:15;3.10;;;1.42;;
72557;SDS011;60583;50.094;8.748;2022-10-16T04:12:41;3.60;;;1.42;;
72557;SDS011;60583;50.094;8.748;2022-10-16T04:15:06;3.50;;;1.30;;
72557;SDS011;60583;50.094;8.748;2022-10-16T04:17:32;3.85;;;1.35;;
72557;SDS011;60583;50.094;8.748;2022-10-16T04:19:57;3.95;;;1.33;;
72557;SDS011;60583;50.094;8.748;2022-10-16T04:22:23;3.47;;;1.40;;
72557;SDS011;60583;50.094;8.748;2022-10-16T04:24:48;3.15;;;1.45;;
72557;SDS011;60583;50.094;8.748;2022-10-16T04:27:13;4.55;;;1.67;;
72557;SDS011;60583;50.094;8.748;2022-10-16T04:29:39;3.88;;;1.70;;
72557;SDS011;60583;50.094;8.748;2022-10-16T04:32:04;3.58;;;1.40;;
72557;SDS011;60583;50.094;8.748;2022-10-16T04:34:29;3.78;;;1.80;;
72557;SDS011;60583;50.094;8.748;2022-10-16T04:36:55;5.50;;;1.70;;
72557;SDS011;60583;50.094;8.748;2022-10-16T04:39:20;3.85;;;1.58;;
72557;SDS011;60583;50.094;8.748;2022-10-16T04:41:45;4.70;;;1.85;;
72557;SDS011;60583;50.094;8.748;2022-10-16T04:44:11;4.85;;;1.55;;
72557;SDS011;60583;50.094;8.748;2022-10-16T04:46:36;3.58;;;1.33;;
72557;SDS011;60583;50.094;8.748;2022-10-16T04:49:01;3.85;;;1.70;;
72557;SDS011;60583;50.094;8.748;2022-10-16T04:51:27;2.90;;;1.35;;
72557;SDS011;60583;50.094;8.748;2022-10-16T04:53:53;4.85;;;1.50;;
72557;SDS011;60583;50.094;8.748;2022-10-16T04:56:19;3.20;;;1.63;;
72557;SDS011;60583;50.094;8.748;2022-10-16T04:58:46;3.80;;;1.50;;
72557;SDS011;60583;50.094;8.748;2022-10-16T05:01:12;2.65;;;1.33;;
72557;SDS011;60583;50.094;8.748;2022-10-16T05:03:37;4.55;;;1.30;;
72557;SDS011;60583;50.094;8.748;2022-10-16T05:06:04;4.20;;;1.85;;
72557;SDS011;60583;50.094;8.748;2022-10-16T05:08:33;3.70;;;1.70;;
72557;SDS011;60583;50.094;8.748;2022-10-16T05:10:58;3.70;;;1.83;;
72557;SDS011;60583;50.094;8.748;2022-10-16T05:13:23;5.53;;;1.70;;
72557;SDS011;60583;50.094;8.748;2022-10-16T05:15:49;6.80;;;2.30;;
72557;SDS011;60583;50.094;8.748;2022-10-16T05:18:15;6.93;;;1.95;;
72557;SDS011;60583;50.094;8.748;2022-10-16T05:20:41;2.80;;;1.40;;
72557;SDS011;60583;50.094;8.748;2022-10-16T05:23:07;5.38;;;1.80;;
72557;SDS011;60583;50.094;8.748;2022-10-16T05:25:35;3.85;;;1.55;;
72557;SDS011;60583;50.094;8.748;2022-10-16T05:28:00;4.30;;;1.80;;
72557;SDS011;60583;50.094;8.748;2022-10-16T05:30:26;4.13;;;1.88;;
72557;SDS011;60583;50.094;8.748;2022-10-16T05:32:51;3.45;;;1.48;;
72557;SDS011;60583;50.094;8.748;2022-10-16T05:35:17;3.38;;;1.83;;
72557;SDS011;60583;50.094;8.748;2022-10-16T05:37:43;4.82;;;1.60;;
72557;SDS011;60583;50.094;8.748;2022-10-16T05:40:09;3.25;;;1.55;;
72557;SDS011;60583;50.094;8.748;2022-10-16T05:42:35;5.57;;;1.77;;
72557;SDS011;60583;50.094;8.748;2022-10-16T05:45:01;4.80;;;1.60;;
72557;SDS011;60583;50.094;8.748;2022-10-16T05:47:26;3.78;;;1.65;;
72557;SDS011;60583;50.094;8.748;2022-10-16T05:49:51;4.40;;;1.63;;
72557;SDS011;60583;50.094;8.748;2022-10-16T05:52:17;4.32;;;1.80;;
72557;SDS011;60583;50.094;8.748;2022-10-16T05:54:42;3.50;;;1.83;;
72557;SDS011;60583;50.094;8.748;2022-10-16T05:57:08;4.40;;;1.92;;
72557;SDS011;60583;50.094;8.748;2022-10-16T05:59:34;5.28;;;2.20;;
72557;SDS011;60583;50.094;8.748;2022-10-16T06:01:59;9.45;;;3.28;;
72557;SDS011;60583;50.094;8.748;2022-10-16T06:04:25;6.90;;;2.92;;
72557;SDS011;60583;50.094;8.748;2022-10-16T06:06:50;6.65;;;3.20;;
72557;SDS011;60583;50.094;8.748;2022-10-16T06:09:15;5.80;;;2.70;;
72557;SDS011;60583;50.094;8.748;2022-10-16T06:11:41;6.43;;;2.92;;
72557;SDS011;60583;50.094;8.748;2022-10-16T06:14:07;5.78;;;2.38;;
72557;SDS011;60583;50.094;8.748;2022-10-16T06:16:34;4.85;;;2.63;;
72557;SDS011;60583;50.094;8.748;2022-10-16T06:19:01;4.25;;;2.08;;
72557;SDS011;60583;50.094;8.748;2022-10-16T06:21:31;4.25;;;2.40;;
72557;SDS011;60583;50.094;8.748;2022-10-16T06:23:57;5.53;;;2.35;;
72557;SDS011;60583;50.094;8.748;2022-10-16T06:26:25;5.03;;;2.70;;
72557;SDS011;60583;50.094;8.748;2022-10-16T06:28:53;4.63;;;2.50;;
72557;SDS011;60583;50.094;8.748;2022-10-16T06:31:22;6.88;;;3.05;;
72557;SDS011;60583;50.094;8.748;2022-10-16T06:33:52;6.07;;;3.65;;
72557;SDS011;60583;50.094;8.748;2022-10-16T06:36:18;5.30;;;2.92;;
72557;SDS011;60583;50.094;8.748;2022-10-16T06:38:45;5.65;;;2.90;;
72557;SDS011;60583;50.094;8.748;2022-10-16T06:41:12;6.80;;;3.55;;
72557;SDS011;60583;50.094;8.748;2022-10-16T06:43:39;7.05;;;3.47;;
72557;SDS011;60583;50.094;8.748;2022-10-16T06:46:05;6.05;;;4.07;;
72557;SDS011;60583;50.094;8.748;2022-10-16T06:48:32;9.55;;;5.68;;
72557;SDS011;60583;50.094;8.748;2022-10-16T06:50:59;9.05;;;5.70;;
72557;SDS011;60583;50.094;8.748;2022-10-16T06:53:26;9.38;;;4.72;;
72557;SDS011;60583;50.094;8.748;2022-10-16T06:55:53;6.22;;;3.72;;
72557;SDS011;60583;50.094;8.748;2022-10-16T06:58:18;7.32;;;3.90;;
72557;SDS011;60583;50.094;8.748;2022-10-16T07:00:44;7.30;;;3.97;;
72557;SDS011;60583;50.094;8.748;2022-10-16T07:03:09;7.57;;;3.58;;
72557;SDS011;60583;50.094;8.748;2022-10-16T07:05:38;7.03;;;4.20;;
72557;SDS011;60583;50.094;8.748;2022-10-16T07:08:05;7.70;;;3.58;;
72557;SDS011;60583;50.094;8.748;2022-10-16T07:10:30;7.70;;;4.40;;
72557;SDS011;60583;50.094;8.748;2022-10-16T07:12:56;7.47;;;3.70;;
72557;SDS011;60583;50.094;8.748;2022-10-16T07:15:22;6.43;;;3.22;;
72557;SDS011;60583;50.094;8.748;2022-10-16T07:17:47;7.13;;;3.17;;
72557;SDS011;60583;50.094;8.748;2022-10-16T07:20:12;6.28;;;3.35;;
72557;SDS011;60583;50.094;8.748;2022-10-16T07:22:38;6.15;;;3.30;;
72557;SDS011;60583;50.094;8.748;2022-10-16T07:25:03;7.00;;;3.60;;
72557;SDS011;60583;50.094;8.748;2022-10-16T07:27:29;7.32;;;3.83;;
72557;SDS011;60583;50.094;8.748;2022-10-16T07:29:54;6.82;;;3.33;;
72557;SDS011;60583;50.094;8.748;2022-10-16T07:32:19;5.88;;;3.10;;
72557;SDS011;60583;50.094;8.748;2022-10-16T07:34:45;5.97;;;3.10;;
72557;SDS011;60583;50.094;8.748;2022-10-16T07:37:10;5.18;;;2.92;;
72557;SDS011;60583;50.094;8.748;2022-10-16T07:39:36;5.50;;;3.28;;
72557;SDS011;60583;50.094;8.748;2022-10-16T07:42:01;6.68;;;4.07;;
72557;SDS011;60583;50.094;8.748;2022-10-16T07:44:27;6.78;;;4.00;;
72557;SDS011;60583;50.094;8.748;2022-10-16T07:46:52;5.80;;;3.30;;
72557;SDS011;60583;50.094;8.748;2022-10-16T07:49:17;7.00;;;3.35;;
72557;SDS011;60583;50.094;8.748;2022-10-16T07:51:43;6.25;;;3.22;;
72557;SDS011;60583;50.094;8.748;2022-10-16T07:54:11;4.93;;;2.92;;
72557;SDS011;60583;50.094;8.748;2022-10-16T07:56:36;6.30;;;3.25;;
72557;SDS011;60583;50.094;8.748;2022-10-16T07:59:02;6.25;;;3.20;;
72557;SDS011;60583;50.094;8.748;2022-10-16T08:01:27;6.68;;;3.08;;
72557;SDS011;60583;50.094;8.748;2022-10-16T08:03:52;6.72;;;3.05;;
72557;SDS011;60583;50.094;8.748;2022-10-16T08:06:18;5.93;;;2.92;;
72557;SDS011;60583;50.094;8.748;2022-10-16T08:08:45;6.45;;;3.20;;
72557;SDS011;60583;50.094;8.748;2022-10-16T08:11:11;6.32;;;3.60;;
72557;SDS011;60583;50.094;8.748;2022-10-16T08:13:36;6.32;;;3.10;;
72557;SDS011;60583;50.094;8.748;2022-10-16T08:16:02;5.13;;;3.22;;
72557;SDS011;60583;50.094;8.748;2022-10-16T08:18:32;6.13;;;2.95;;
72557;SDS011;60583;50.094;8.748;2022-10-16T08:21:01;5.40;;;3.03;;
72557;SDS011;60583;50.094;8.748;2022-10-16T08:23:28;6.07;;;3.30;;
72557;SDS011;60583;50.094;8.748;2022-10-16T08:25:54;6.65;;;3.28;;
72557;SDS011;60583;50.094;8.748;2022-10-16T08:28:21;5.93;;;2.90;;
72557;SDS011;60583;50.094;8.748;2022-10-16T08:30:47;6.25;;;3.03;;
72557;SDS011;60583;50.094;8.748;2022-10-16T08:33:12;6.57;;;3.30;;
72557;SDS011;60583;50.094;8.748;2022-10-16T08:35:37;6.88;;;3.47;;
72557;SDS011;60583;50.094;8.748;2022-10-16T08:38:06;6.32;;;3.58;;
72557;SDS011;60583;50.094;8.748;2022-10-16T08:40:33;5.75;;;3.60;;
72557;SDS011;60583;50.094;8.748;2022-10-16T08:48:35;7.88;;;4.00;;
72557;SDS011;60583;50.094;8.748;2022-10-16T08:51:21;6.50;;;4.45;;
72557;SDS011;60583;50.094;8.748;2022-10-16T08:53:51;7.30;;;4.80;;
72557;SDS011;60583;50.094;8.748;2022-10-16T08:56:21;9.07;;;4.80;;
72557;SDS011;60583;50.094;8.748;2022-10-16T08:58:47;7.55;;;5.03;;
72557;SDS011;60583;50.094;8.748;2022-10-16T09:01:17;11.23;;;8.35;;
72557;SDS011;60583;50.094;8.748;2022-10-16T09:03:57;8.02;;;5.63;;
72557;SDS011;60583;50.094;8.748;2022-10-16T09:12:12;9.90;;;6.47;;
72557;SDS011;60583;50.094;8.748;2022-10-16T09:22:53;9.02;;;6.65;;
72557;SDS011;60583;50.094;8.748;2022-10-16T09:25:41;9.10;;;6.10;;
72557;SDS011;60583;50.094;8.748;2022-10-16T09:28:09;9.77;;;6.43;;
72557;SDS011;60583;50.094;8.748;2022-10-16T09:30:35;12.15;;;7.00;;
72557;SDS011;60583;50.094;8.748;2022-10-16T09:33:02;9.63;;;6.72;;
72557;SDS011;60583;50.094;8.748;2022-10-16T09:35:33;10.02;;;6.72;;
72557;SDS011;60583;50.094;8.748;2022-10-16T09:38:03;10.63;;;7.75;;
72557;SDS011;60583;50.094;8.748;2022-10-16T09:40:29;10.10;;;7.10;;
72557;SDS011;60583;50.094;8.748;2022-10-16T09:45:53;11.45;;;7.00;;
72557;SDS011;60583;50.094;8.748;2022-10-16T09:48:34;12.75;;;7.57;;
72557;SDS011;60583;50.094;8.748;2022-10-16T09:51:05;11.90;;;8.25;;
72557;SDS011;60583;50.094;8.748;2022-10-16T09:53:40;13.10;;;8.63;;
72557;SDS011;60583;50.094;8.748;2022-10-16T09:56:09;11.73;;;8.20;;
72557;SDS011;60583;50.094;8.748;2022-10-16T09:58:49;9.73;;;7.90;;
72557;SDS011;60583;50.094;8.748;2022-10-16T10:01:16;11.00;;;7.78;;
72557;SDS011;60583;50.094;8.748;2022-10-16T10:03:42;12.27;;;8.57;;
72557;SDS011;60583;50.094;8.748;2022-10-16T10:06:19;15.30;;;9.20;;
72557;SDS011;60583;50.094;8.748;2022-10-16T10:08:55;12.02;;;8.38;;
72557;SDS011;60583;50.094;8.748;2022-10-16T10:11:40;10.48;;;7.45;;
72557;SDS011;60583;50.094;8.748;2022-10-16T10:16:50;12.00;;;8.18;;
72557;SDS011;60583;50.094;8.748;2022-10-16T10:19:20;12.35;;;8.63;;
72557;SDS011;60583;50.094;8.748;2022-10-16T10:21:49;10.73;;;8.05;;
72557;SDS011;60583;50.094;8.748;2022-10-16T10:24:16;12.13;;;8.38;;
72557;SDS011;60583;50.094;8.748;2022-10-16T10:26:45;12.57;;;8.70;;
72557;SDS011;60583;50.094;8.748;2022-10-16T10:29:39;12.43;;;7.10;;
72557;SDS011;60583;50.094;8.748;2022-10-16T10:32:12;9.85;;;7.28;;
72557;SDS011;60583;50.094;8.748;2022-10-16T10:34:50;10.52;;;7.30;;
72557;SDS011;60583;50.094;8.748;2022-10-16T10:37:30;10.23;;;7.00;;
72557;SDS011;60583;50.094;8.748;2022-10-16T10:43:24;10.52;;;7.15;;
72557;SDS011;60583;50.094;8.748;2022-10-16T10:45:55;9.63;;;7.43;;
72557;SDS011;60583;50.094;8.748;2022-10-16T10:48:50;10.85;;;8.05;;
72557;SDS011;60583;50.094;8.748;2022-10-16T10:51:39;11.32;;;7.93;;
72557;SDS011;60583;50.094;8.748;2022-10-16T10:59:41;10.73;;;8.50;;
72557;SDS011;60583;50.094;8.748;2022-10-16T11:02:33;11.35;;;8.25;;
72557;SDS011;60583;50.094;8.748;2022-10-16T11:05:20;8.05;;;5.97;;
72557;SDS011;60583;50.094;8.748;2022-10-16T11:07:53;7.93;;;6.43;;
72557;SDS011;60583;50.094;8.748;2022-10-16T11:10:38;7.20;;;5.60;;
72557;SDS011;60583;50.094;8.748;2022-10-16T11:13:15;7.22;;;5.20;;
72557;SDS011;60583;50.094;8.748;2022-10-16T11:15:41;5.85;;;4.65;;
72557;SDS011;60583;50.094;8.748;2022-10-16T11:21:07;6.40;;;4.47;;
72557;SDS011;60583;50.094;8.748;2022-10-16T11:26:16;5.88;;;4.25;;
72557;SDS011;60583;50.094;8.748;2022-10-16T11:28:49;5.65;;;4.38;;
72557;SDS011;60583;50.094;8.748;2022-10-16T11:34:03;5.57;;;3.85;;
72557;SDS011;60583;50.094;8.748;2022-10-16T11:39:19;6.20;;;3.58;;
72557;SDS011;60583;50.094;8.748;2022-10-16T11:44:31;4.30;;;3.08;;
72557;SDS011;60583;50.094;8.748;2022-10-16T11:47:07;3.80;;;3.03;;
72557;SDS011;60583;50.094;8.748;2022-10-16T11:49:40;4.15;;;3.33;;
72557;SDS011;60583;50.094;8.748;2022-10-16T11:52:12;4.72;;;3.80;;
72557;SDS011;60583;50.094;8.748;2022-10-16T11:54:57;5.55;;;3.70;;
72557;SDS011;60583;50.094;8.748;2022-10-16T11:57:33;5.00;;;3.55;;
72557;SDS011;60583;50.094;8.748;2022-10-16T12:00:08;5.55;;;3.85;;
72557;SDS011;60583;50.094;8.748;2022-10-16T12:08:27;4.88;;;2.92;;
72557;SDS011;60583;50.094;8.748;2022-10-16T12:10:53;5.72;;;3.53;;
72557;SDS011;60583;50.094;8.748;2022-10-16T12:13:31;5.30;;;4.20;;
72557;SDS011;60583;50.094;8.748;2022-10-16T12:18:36;5.95;;;3.20;;
72557;SDS011;60583;50.094;8.748;2022-10-16T12:21:02;4.63;;;3.50;;
72557;SDS011;60583;50.094;8.748;2022-10-16T12:23:32;5.22;;;3.03;;
72557;SDS011;60583;50.094;8.748;2022-10-16T12:26:01;5.38;;;2.90;;
72557;SDS011;60583;50.094;8.748;2022-10-16T12:28:36;4.90;;;2.90;;
72557;SDS011;60583;50.094;8.748;2022-10-16T12:31:03;3.65;;;2.13;;
72557;SDS011;60583;50.094;8.748;2022-10-16T12:33:34;3.78;;;1.95;;
72557;SDS011;60583;50.094;8.748;2022-10-16T12:36:03;5.03;;;2.25;;
72557;SDS011;60583;50.094;8.748;2022-10-16T12:41:10;3.80;;;2.03;;
72557;SDS011;60583;50.094;8.748;2022-10-16T12:43:44;3.63;;;1.90;;
72557;SDS011;60583;50.094;8.748;2022-10-16T12:48:37;2.70;;;1.80;;
72557;SDS011;60583;50.094;8.748;2022-10-16T12:51:22;5.20;;;1.60;;
72557;SDS011;60583;50.094;8.748;2022-10-16T12:59:11;3.08;;;1.52;;
72557;SDS011;60583;50.094;8.748;2022-10-16T13:12:47;3.60;;;1.90;;
72557;SDS011;60583;50.094;8.748;2022-10-16T13:15:27;4.63;;;1.60;;
72557;SDS011;60583;50.094;8.748;2022-10-16T13:18:19;3.55;;;1.80;;
72557;SDS011;60583;50.094;8.748;2022-10-16T13:20:55;3.60;;;1.75;;
72557;SDS011;60583;50.094;8.748;2022-10-16T13:28:38;4.13;;;2.03;;
72557;SDS011;60583;50.094;8.748;2022-10-16T13:31:04;6.70;;;1.95;;
72557;SDS011;60583;50.094;8.748;2022-10-16T13:33:37;4.53;;;1.90;;
72557;SDS011;60583;50.094;8.748;2022-10-16T13:36:04;5.00;;;2.08;;
72557;SDS011;60583;50.094;8.748;2022-10-16T13:38:31;4.15;;;2.10;;
72557;SDS011;60583;50.094;8.748;2022-10-16T13:41:06;3.97;;;1.90;;
72557;SDS011;60583;50.094;8.748;2022-10-16T13:43:41;3.50;;;2.00;;
72557;SDS011;60583;50.094;8.748;2022-10-16T13:46:21;3.72;;;1.83;;
72557;SDS011;60583;50.094;8.748;2022-10-16T13:49:12;4.65;;;1.98;;
72557;SDS011;60583;50.094;8.748;2022-10-16T13:51:39;3.72;;;1.95;;
72557;SDS011;60583;50.094;8.748;2022-10-16T13:54:05;3.30;;;2.17;;
72557;SDS011;60583;50.094;8.748;2022-10-16T13:56:32;3.67;;;1.83;;
72557;SDS011;60583;50.094;8.748;2022-10-16T13:59:01;5.28;;;1.90;;
72557;SDS011;60583;50.094;8.748;2022-10-16T14:01:41;3.15;;;1.90;;
72557;SDS011;60583;50.094;8.748;2022-10-16T14:04:09;4.05;;;1.67;;
72557;SDS011;60583;50.094;8.748;2022-10-16T14:06:40;4.07;;;2.10;;
72557;SDS011;60583;50.094;8.748;2022-10-16T14:09:08;4.07;;;2.20;;
72557;SDS011;60583;50.094;8.748;2022-10-16T14:14:46;4.35;;;2.10;;
72557;SDS011;60583;50.094;8.748;2022-10-16T14:17:24;4.63;;;1.90;;
72557;SDS011;60583;50.094;8.748;2022-10-16T14:19:53;4.15;;;2.10;;
72557;SDS011;60583;50.094;8.748;2022-10-16T14:22:41;3.70;;;1.80;;
72557;SDS011;60583;50.094;8.748;2022-10-16T14:27:44;5.05;;;3.00;;
72557;SDS011;60583;50.094;8.748;2022-10-16T14:30:14;4.10;;;2.22;;
72557;SDS011;60583;50.094;8.748;2022-10-16T14:33:02;3.72;;;2.28;;
72557;SDS011;60583;50.094;8.748;2022-10-16T14:35:38;3.40;;;2.17;;
72557;SDS011;60583;50.094;8.748;2022-10-16T14:38:05;11.70;;;8.82;;
72557;SDS011;60583;50.094;8.748;2022-10-16T14:43:14;5.38;;;2.33;;
72557;SDS011;60583;50.094;8.748;2022-10-16T14:45:56;3.97;;;2.03;;
72557;SDS011;60583;50.094;8.748;2022-10-16T14:48:22;4.50;;;2.13;;
72557;SDS011;60583;50.094;8.748;2022-10-16T14:50:48;5.53;;;2.55;;
72557;SDS011;60583;50.094;8.748;2022-10-16T14:53:13;4.65;;;2.90;;
72557;SDS011;60583;50.094;8.748;2022-10-16T14:55:39;6.25;;;2.78;;
72557;SDS011;60583;50.094;8.748;2022-10-16T14:58:09;5.07;;;2.72;;
72557;SDS011;60583;50.094;8.748;2022-10-16T15:00:41;6.72;;;4.20;;
72557;SDS011;60583;50.094;8.748;2022-10-16T15:03:06;5.72;;;3.35;;
72557;SDS011;60583;50.094;8.748;2022-10-16T15:05:32;7.25;;;4.65;;
72557;SDS011;60583;50.094;8.748;2022-10-16T15:07:57;5.45;;;3.15;;
72557;SDS011;60583;50.094;8.748;2022-10-16T15:10:23;4.60;;;2.47;;
72557;SDS011;60583;50.094;8.748;2022-10-16T15:12:50;7.90;;;3.00;;
72557;SDS011;60583;50.094;8.748;2022-10-16T15:17:53;3.95;;;2.40;;
72557;SDS011;60583;50.094;8.748;2022-10-16T15:20:25;15.02;;;7.43;;
72557;SDS011;60583;50.094;8.748;2022-10-16T15:22:55;10.40;;;5.40;;
72557;SDS011;60583;50.094;8.748;2022-10-16T15:25:29;7.95;;;3.78;;
72557;SDS011;60583;50.094;8.748;2022-10-16T15:28:08;5.90;;;2.83;;
72557;SDS011;60583;50.094;8.748;2022-10-16T15:30:34;5.97;;;2.50;;
72557;SDS011;60583;50.094;8.748;2022-10-16T15:33:02;11.50;;;8.80;;
72557;SDS011;60583;50.094;8.748;2022-10-16T15:35:28;11.20;;;7.32;;
72557;SDS011;60583;50.094;8.748;2022-10-16T15:37:53;6.32;;;4.18;;
72557;SDS011;60583;50.094;8.748;2022-10-16T15:40:19;5.68;;;3.47;;
72557;SDS011;60583;50.094;8.748;2022-10-16T15:42:45;4.22;;;2.95;;
72557;SDS011;60583;50.094;8.748;2022-10-16T15:45:11;6.20;;;3.30;;
72557;SDS011;60583;50.094;8.748;2022-10-16T15:47:37;4.85;;;3.45;;
72557;SDS011;60583;50.094;8.748;2022-10-16T15:50:03;5.78;;;3.13;;
72557;SDS011;60583;50.094;8.748;2022-10-16T15:52:29;4.85;;;3.00;;
72557;SDS011;60583;50.094;8.748;2022-10-16T15:54:56;6.05;;;3.63;;
72557;SDS011;60583;50.094;8.748;2022-10-16T15:57:22;5.32;;;3.17;;
72557;SDS011;60583;50.094;8.748;2022-10-16T15:59:48;6.00;;;3.63;;
72557;SDS011;60583;50.094;8.748;2022-10-16T16:02:14;6.15;;;3.13;;
72557;SDS011;60583;50.094;8.748;2022-10-16T16:04:39;6.28;;;3.25;;
72557;SDS011;60583;50.094;8.748;2022-10-16T16:07:05;5.28;;;2.85;;
72557;SDS011;60583;50.094;8.748;2022-10-16T16:09:32;6.07;;;3.08;;
72557;SDS011;60583;50.094;8.748;2022-10-16T16:11:58;6.00;;;3.08;;
72557;SDS011;60583;50.094;8.748;2022-10-16T16:14:25;5.28;;;3.25;;
72557;SDS011;60583;50.094;8.748;2022-10-16T16:16:52;7.93;;;4.53;;
72557;SDS011;60583;50.094;8.748;2022-10-16T16:19:21;7.47;;;4.95;;
72557;SDS011;60583;50.094;8.748;2022-10-16T16:21:47;7.75;;;4.80;;
72557;SDS011;60583;50.094;8.748;2022-10-16T16:24:13;6.95;;;4.68;;
72557;SDS011;60583;50.094;8.748;2022-10-16T16:26:38;8.30;;;4.95;;
72557;SDS011;60583;50.094;8.748;2022-10-16T16:29:08;7.38;;;4.95;;
72557;SDS011;60583;50.094;8.748;2022-10-16T16:31:37;8.00;;;4.60;;
72557;SDS011;60583;50.094;8.748;2022-10-16T16:34:03;6.70;;;4.05;;
72557;SDS011;60583;50.094;8.748;2022-10-16T16:36:28;6.32;;;4.32;;
72557;SDS011;60583;50.094;8.748;2022-10-16T16:38:54;9.18;;;5.63;;
72557;SDS011;60583;50.094;8.748;2022-10-16T16:41:20;6.95;;;4.38;;
72557;SDS011;60583;50.094;8.748;2022-10-16T16:43:48;6.97;;;4.40;;
72557;SDS011;60583;50.094;8.748;2022-10-16T16:46:14;7.80;;;4.10;;
72557;SDS011;60583;50.094;8.748;2022-10-16T16:48:40;7.07;;;3.95;;